createdAt,value
2018-06-27T00:00:10.654Z,996.36
2018-06-27T00:01:10.663Z,996.38
2018-06-27T00:02:10.661Z,996.36
2018-06-27T00:03:10.653Z,996.32
2018-06-27T00:04:10.654Z,996.35
2018-06-27T00:05:10.655Z,996.35
2018-06-27T00:06:10.650Z,996.34
2018-06-27T00:07:10.657Z,996.33
2018-06-27T00:08:10.655Z,996.31
2018-06-27T00:09:10.644Z,996.33
2018-06-27T00:10:10.645Z,996.31
2018-06-27T00:11:10.644Z,996.29
2018-06-27T00:12:10.647Z,996.28
2018-06-27T00:13:10.655Z,996.34
2018-06-27T00:14:10.645Z,996.33
2018-06-27T00:15:10.705Z,996.32
2018-06-27T00:16:10.643Z,996.33
2018-06-27T00:17:10.645Z,996.32
2018-06-27T00:18:10.641Z,996.36
2018-06-27T00:19:10.642Z,996.35
2018-06-27T00:20:10.645Z,996.35
2018-06-27T00:21:10.640Z,996.35
2018-06-27T00:22:10.644Z,996.34
2018-06-27T00:23:10.640Z,996.35
2018-06-27T00:24:10.646Z,996.37
2018-06-27T00:25:10.647Z,996.37
2018-06-27T00:26:10.644Z,996.36
2018-06-27T00:27:10.643Z,996.38
2018-06-27T00:28:10.639Z,996.38
2018-06-27T00:29:10.646Z,996.39
2018-06-27T00:30:10.638Z,996.38
2018-06-27T00:31:10.640Z,996.37
2018-06-27T00:32:10.642Z,996.35
2018-06-27T00:33:10.643Z,996.37
2018-06-27T00:34:10.636Z,996.33
2018-06-27T00:35:10.734Z,996.31
2018-06-27T00:36:10.642Z,996.32
2018-06-27T00:37:10.641Z,996.33
2018-06-27T00:38:10.641Z,996.35
2018-06-27T00:39:10.647Z,996.33
2018-06-27T00:40:10.639Z,996.3
2018-06-27T00:41:10.638Z,996.33
2018-06-27T00:42:10.630Z,996.32
2018-06-27T00:43:10.631Z,996.27
2018-06-27T00:44:10.880Z,996.26
2018-06-27T00:45:10.636Z,996.26
2018-06-27T00:46:10.680Z,996.24
2018-06-27T00:47:10.686Z,996.27
2018-06-27T00:48:10.678Z,996.25
2018-06-27T00:49:10.685Z,996.31
2018-06-27T00:50:10.675Z,996.27
2018-06-27T00:51:10.664Z,996.26
2018-06-27T00:52:10.673Z,996.24
2018-06-27T00:53:10.669Z,996.23
2018-06-27T00:54:10.683Z,996.22
2018-06-27T00:55:10.676Z,996.24
2018-06-27T00:56:10.669Z,996.23
2018-06-27T00:57:10.617Z,996.23
2018-06-27T00:58:10.614Z,996.23
2018-06-27T00:59:11.416Z,996.24
2018-06-27T01:00:10.618Z,996.22
2018-06-27T01:01:10.617Z,996.21
2018-06-27T01:02:10.617Z,996.21
2018-06-27T01:03:10.615Z,996.21
2018-06-27T01:04:10.615Z,996.17
2018-06-27T01:05:10.614Z,996.16
2018-06-27T01:06:10.619Z,996.15
2018-06-27T01:07:10.613Z,996.14
2018-06-27T01:08:10.612Z,996.09
2018-06-27T01:09:10.619Z,996.13
2018-06-27T01:10:10.612Z,996.11
2018-06-27T01:11:10.612Z,996.13
2018-06-27T01:12:10.609Z,996.14
2018-06-27T01:13:10.610Z,996.12
2018-06-27T01:14:10.616Z,996.17
2018-06-27T01:15:10.604Z,996.17
2018-06-27T01:16:10.604Z,996.15
2018-06-27T01:17:10.605Z,996.19
2018-06-27T01:18:10.605Z,996.15
2018-06-27T01:19:10.638Z,996.21
2018-06-27T01:20:10.639Z,996.18
2018-06-27T01:21:10.604Z,996.15
2018-06-27T01:22:10.604Z,996.15
2018-06-27T01:23:10.602Z,996.18
2018-06-27T01:24:10.619Z,996.12
2018-06-27T01:25:10.602Z,996.14
2018-06-27T01:26:10.603Z,996.11
2018-06-27T01:27:10.600Z,996.12
2018-06-27T01:28:10.598Z,996.13
2018-06-27T01:29:10.605Z,996.12
2018-06-27T01:30:10.609Z,996.1
2018-06-27T01:31:10.595Z,996.1
2018-06-27T01:32:10.592Z,996.1
2018-06-27T01:33:10.604Z,996.09
2018-06-27T01:34:10.599Z,996.1
2018-06-27T01:35:10.590Z,996.13
2018-06-27T01:36:10.592Z,996.11
2018-06-27T01:37:10.592Z,996.16
2018-06-27T01:38:10.588Z,996.21
2018-06-27T01:39:10.590Z,996.21
2018-06-27T01:40:10.589Z,996.23
2018-06-27T01:41:10.589Z,996.29
2018-06-27T01:42:10.590Z,996.29
2018-06-27T01:43:10.590Z,996.32
2018-06-27T01:44:10.588Z,996.33
2018-06-27T01:45:10.592Z,996.33
2018-06-27T01:46:10.636Z,996.29
2018-06-27T01:47:10.593Z,996.31
2018-06-27T01:48:10.593Z,996.32
2018-06-27T01:49:10.595Z,996.3
2018-06-27T01:50:10.581Z,996.32
2018-06-27T01:51:10.581Z,996.31
2018-06-27T01:52:10.580Z,996.31
2018-06-27T01:53:10.587Z,996.32
2018-06-27T01:54:10.595Z,996.31
2018-06-27T01:55:10.575Z,996.25
2018-06-27T01:56:10.576Z,996.26
2018-06-27T01:57:10.576Z,996.25
2018-06-27T01:58:10.575Z,996.25
2018-06-27T01:59:10.573Z,996.21
2018-06-27T02:00:10.595Z,996.26
2018-06-27T02:01:10.573Z,996.24
2018-06-27T02:02:10.571Z,996.2
2018-06-27T02:03:10.571Z,996.2
2018-06-27T02:04:10.569Z,996.21
2018-06-27T02:05:10.574Z,996.19
2018-06-27T02:06:10.570Z,996.22
2018-06-27T02:07:10.566Z,996.23
2018-06-27T02:08:10.567Z,996.22
2018-06-27T02:09:10.566Z,996.26
2018-06-27T02:10:10.566Z,996.21
2018-06-27T02:11:10.567Z,996.24
2018-06-27T02:12:10.564Z,996.21
2018-06-27T02:13:10.561Z,996.2
2018-06-27T02:14:10.566Z,996.22
2018-06-27T02:15:10.814Z,996.27
2018-06-27T02:16:10.570Z,996.22
2018-06-27T02:17:10.566Z,996.25
2018-06-27T02:18:10.563Z,996.25
2018-06-27T02:19:10.555Z,996.25
2018-06-27T02:20:10.555Z,996.27
2018-06-27T02:21:10.553Z,996.23
2018-06-27T02:22:10.552Z,996.25
2018-06-27T02:23:10.559Z,996.26
2018-06-27T02:24:10.552Z,996.27
2018-06-27T02:25:10.552Z,996.24
2018-06-27T02:26:10.548Z,996.2
2018-06-27T02:27:10.547Z,996.24
2018-06-27T02:28:10.549Z,996.22
2018-06-27T02:29:10.548Z,996.21
2018-06-27T02:30:11.345Z,996.2
2018-06-27T02:31:10.550Z,996.26
2018-06-27T02:32:10.544Z,996.28
2018-06-27T02:33:10.542Z,996.32
2018-06-27T02:34:10.542Z,996.35
2018-06-27T02:35:10.540Z,996.35
2018-06-27T02:36:10.538Z,996.38
2018-06-27T02:37:10.541Z,996.4
2018-06-27T02:38:10.542Z,996.41
2018-06-27T02:39:10.540Z,996.39
2018-06-27T02:40:10.532Z,996.39
2018-06-27T02:41:10.532Z,996.41
2018-06-27T02:42:10.532Z,996.38
2018-06-27T02:43:10.544Z,996.42
2018-06-27T02:44:10.530Z,996.41
2018-06-27T02:45:10.536Z,996.45
2018-06-27T02:46:10.542Z,996.41
2018-06-27T02:47:10.530Z,996.39
2018-06-27T02:48:10.525Z,996.45
2018-06-27T02:49:10.527Z,996.43
2018-06-27T02:50:10.522Z,996.43
2018-06-27T02:51:10.532Z,996.4
2018-06-27T02:52:10.522Z,996.42
2018-06-27T02:53:10.525Z,996.43
2018-06-27T02:54:10.528Z,996.45
2018-06-27T02:55:10.522Z,996.38
2018-06-27T02:56:10.523Z,996.36
2018-06-27T02:57:10.516Z,996.4
2018-06-27T02:58:10.515Z,996.42
2018-06-27T02:59:10.515Z,996.39
2018-06-27T03:00:10.521Z,996.38
2018-06-27T03:01:10.513Z,996.44
2018-06-27T03:02:10.519Z,996.39
2018-06-27T03:03:10.512Z,996.42
2018-06-27T03:04:10.510Z,996.41
2018-06-27T03:05:10.504Z,996.45
2018-06-27T03:06:10.513Z,996.43
2018-06-27T03:07:10.513Z,996.47
2018-06-27T03:08:10.502Z,996.48
2018-06-27T03:09:10.503Z,996.5
2018-06-27T03:10:10.503Z,996.53
2018-06-27T03:11:10.503Z,996.55
2018-06-27T03:12:10.499Z,996.54
2018-06-27T03:13:10.498Z,996.57
2018-06-27T03:14:10.497Z,996.58
2018-06-27T03:15:10.494Z,996.59
2018-06-27T03:16:10.492Z,996.6
2018-06-27T03:17:10.492Z,996.63
2018-06-27T03:18:10.492Z,996.65
2018-06-27T03:19:10.488Z,996.66
2018-06-27T03:20:10.488Z,996.63
2018-06-27T03:21:10.487Z,996.64
2018-06-27T03:22:10.489Z,996.65
2018-06-27T03:23:10.484Z,996.63
2018-06-27T03:24:10.487Z,996.65
2018-06-27T03:25:10.484Z,996.67
2018-06-27T03:26:10.487Z,996.65
2018-06-27T03:27:10.478Z,996.65
2018-06-27T03:28:10.478Z,996.7
2018-06-27T03:29:10.481Z,996.69
2018-06-27T03:30:10.482Z,996.68
2018-06-27T03:31:10.493Z,996.7
2018-06-27T03:32:10.474Z,996.68
2018-06-27T03:33:10.473Z,996.63
2018-06-27T03:34:10.469Z,996.64
2018-06-27T03:35:10.605Z,996.63
2018-06-27T03:36:10.470Z,996.63
2018-06-27T03:37:10.468Z,996.65
2018-06-27T03:38:10.466Z,996.64
2018-06-27T03:39:10.474Z,996.6
2018-06-27T03:40:10.572Z,996.64
2018-06-27T03:41:10.471Z,996.62
2018-06-27T03:42:10.462Z,996.59
2018-06-27T03:43:10.466Z,996.57
2018-06-27T03:44:10.461Z,996.6
2018-06-27T03:45:10.457Z,996.62
2018-06-27T03:46:10.463Z,996.61
2018-06-27T03:47:10.454Z,996.63
2018-06-27T03:48:10.453Z,996.61
2018-06-27T03:49:10.462Z,996.62
2018-06-27T03:50:10.494Z,996.62
2018-06-27T03:51:10.450Z,996.58
2018-06-27T03:52:10.450Z,996.63
2018-06-27T03:53:10.447Z,996.61
2018-06-27T03:54:10.447Z,996.63
2018-06-27T03:55:10.492Z,996.64
2018-06-27T03:56:10.447Z,996.65
2018-06-27T03:57:10.444Z,996.63
2018-06-27T03:58:10.441Z,996.64
2018-06-27T03:59:10.451Z,996.65
2018-06-27T04:00:10.439Z,996.7
2018-06-27T04:01:11.243Z,996.66
2018-06-27T04:02:10.439Z,996.67
2018-06-27T04:03:10.439Z,996.65
2018-06-27T04:04:10.445Z,996.74
2018-06-27T04:05:10.512Z,996.73
2018-06-27T04:06:10.439Z,996.73
2018-06-27T04:07:10.439Z,996.69
2018-06-27T04:08:10.429Z,996.65
2018-06-27T04:09:10.435Z,996.62
2018-06-27T04:10:10.472Z,996.66
2018-06-27T04:11:10.428Z,996.64
2018-06-27T04:12:10.429Z,996.66
2018-06-27T04:13:10.502Z,996.66
2018-06-27T04:14:10.421Z,996.7
2018-06-27T04:15:10.472Z,996.65
2018-06-27T04:16:10.430Z,996.62
2018-06-27T04:17:10.439Z,996.7
2018-06-27T04:18:10.434Z,996.69
2018-06-27T04:19:10.436Z,996.72
2018-06-27T04:20:10.452Z,996.73
2018-06-27T04:21:10.419Z,996.79
2018-06-27T04:22:10.421Z,996.81
2018-06-27T04:23:10.429Z,996.84
2018-06-27T04:24:10.416Z,996.93
2018-06-27T04:25:10.532Z,996.94
2018-06-27T04:26:10.414Z,996.98
2018-06-27T04:27:10.413Z,997
2018-06-27T04:28:10.418Z,997.01
2018-06-27T04:29:10.418Z,996.96
2018-06-27T04:30:10.428Z,996.97
2018-06-27T04:31:11.217Z,996.96
2018-06-27T04:32:10.406Z,996.94
2018-06-27T04:33:10.408Z,996.94
2018-06-27T04:34:10.421Z,997.01
2018-06-27T04:35:10.549Z,996.97
2018-06-27T04:36:10.575Z,996.97
2018-06-27T04:37:10.411Z,996.94
2018-06-27T04:38:10.428Z,997
2018-06-27T04:39:10.418Z,997
2018-06-27T04:40:10.508Z,997.01
2018-06-27T04:41:10.403Z,997.01
2018-06-27T04:42:10.409Z,997.04
2018-06-27T04:43:10.455Z,996.99
2018-06-27T04:44:10.410Z,997.04
2018-06-27T04:45:10.411Z,997.05
2018-06-27T04:46:10.460Z,997.08
2018-06-27T04:47:10.415Z,997.04
2018-06-27T04:48:10.406Z,997
2018-06-27T04:49:10.413Z,996.99
2018-06-27T04:50:10.414Z,996.92
2018-06-27T04:51:10.421Z,996.92
2018-06-27T04:52:10.411Z,996.96
2018-06-27T04:53:10.405Z,997
2018-06-27T04:54:10.404Z,997.02
2018-06-27T04:55:10.406Z,997.03
2018-06-27T04:56:10.403Z,997.04
2018-06-27T04:57:10.402Z,997.01
2018-06-27T04:58:10.409Z,997.01
2018-06-27T04:59:10.407Z,997.04
2018-06-27T05:00:10.447Z,997.03
2018-06-27T05:01:10.401Z,997.04
2018-06-27T05:02:10.401Z,997.02
2018-06-27T05:03:10.409Z,997.07
2018-06-27T05:04:10.411Z,997.07
2018-06-27T05:05:10.495Z,997.1
2018-06-27T05:06:10.402Z,997.1
2018-06-27T05:07:10.401Z,997.06
2018-06-27T05:08:10.400Z,997.13
2018-06-27T05:09:10.414Z,997.09
2018-06-27T05:10:10.411Z,997.16
2018-06-27T05:11:10.411Z,997.13
2018-06-27T05:12:10.410Z,997.11
2018-06-27T05:13:10.404Z,997.1
2018-06-27T05:14:10.411Z,997.09
2018-06-27T05:15:10.506Z,997.14
2018-06-27T05:16:10.406Z,997.17
2018-06-27T05:17:10.420Z,997.17
2018-06-27T05:18:10.409Z,997.14
2018-06-27T05:19:10.432Z,997.17
2018-06-27T05:20:10.612Z,997.13
2018-06-27T05:21:10.418Z,997.16
2018-06-27T05:22:10.411Z,997.2
2018-06-27T05:23:10.422Z,997.22
2018-06-27T05:24:10.423Z,997.21
2018-06-27T05:25:10.427Z,997.25
2018-06-27T05:26:10.415Z,997.24
2018-06-27T05:27:10.419Z,997.27
2018-06-27T05:28:10.412Z,997.27
2018-06-27T05:29:10.421Z,997.27
2018-06-27T05:30:10.413Z,997.3
2018-06-27T05:31:10.413Z,997.24
2018-06-27T05:32:10.428Z,997.28
2018-06-27T05:33:10.414Z,997.31
2018-06-27T05:34:10.434Z,997.29
2018-06-27T05:35:10.439Z,997.33
2018-06-27T05:36:10.424Z,997.3
2018-06-27T05:37:10.422Z,997.31
2018-06-27T05:38:10.418Z,997.27
2018-06-27T05:39:10.427Z,997.31
2018-06-27T05:40:10.475Z,997.34
2018-06-27T05:41:10.427Z,997.29
2018-06-27T05:42:10.418Z,997.33
2018-06-27T05:43:10.427Z,997.3
2018-06-27T05:44:10.452Z,997.29
2018-06-27T05:45:10.486Z,997.25
2018-06-27T05:46:10.427Z,997.24
2018-06-27T05:47:10.431Z,997.42
2018-06-27T05:48:10.427Z,997.27
2018-06-27T05:49:10.428Z,997.28
2018-06-27T05:50:10.441Z,997.31
2018-06-27T05:51:10.436Z,997.33
2018-06-27T05:52:10.442Z,997.42
2018-06-27T05:53:10.433Z,997.4
2018-06-27T05:54:10.435Z,997.3
2018-06-27T05:55:10.442Z,997.3
2018-06-27T05:56:10.444Z,997.29
2018-06-27T05:57:10.444Z,997.27
2018-06-27T05:58:10.485Z,997.23
2018-06-27T05:59:10.444Z,997.23
2018-06-27T06:00:10.477Z,997.25
2018-06-27T06:01:10.458Z,997.3
2018-06-27T06:02:10.459Z,997.17
2018-06-27T06:03:10.469Z,997.22
2018-06-27T06:04:10.459Z,997.31
2018-06-27T06:05:10.484Z,997.3
2018-06-27T06:06:10.460Z,997.41
2018-06-27T06:07:10.458Z,997.33
2018-06-27T06:08:10.466Z,997.18
2018-06-27T06:09:10.475Z,997.22
2018-06-27T06:10:10.667Z,997.25
2018-06-27T06:11:10.511Z,997.21
2018-06-27T06:12:10.490Z,997.24
2018-06-27T06:13:10.481Z,997.44
2018-06-27T06:14:10.484Z,997.23
2018-06-27T06:15:10.619Z,997.3
2018-06-27T06:16:10.493Z,997.31
2018-06-27T06:17:12.947Z,997.34
2018-06-27T06:18:10.498Z,997.35
2018-06-27T06:19:10.504Z,997.36
2018-06-27T06:20:10.511Z,997.33
2018-06-27T06:21:10.510Z,997.34
2018-06-27T06:22:10.512Z,997.34
2018-06-27T06:23:10.515Z,997.28
2018-06-27T06:24:10.520Z,997.29
2018-06-27T06:25:10.581Z,997.31
2018-06-27T06:26:10.531Z,997.42
2018-06-27T06:27:10.528Z,997.4
2018-06-27T06:28:10.533Z,997.29
2018-06-27T06:29:10.538Z,997.26
2018-06-27T06:30:10.556Z,997.29
2018-06-27T06:31:10.544Z,997.26
2018-06-27T06:32:10.581Z,997.43
2018-06-27T06:33:10.549Z,997.39
2018-06-27T06:34:10.557Z,997.33
2018-06-27T06:35:10.563Z,997.22
2018-06-27T06:36:10.563Z,997.34
2018-06-27T06:37:10.567Z,997.35
2018-06-27T06:38:10.572Z,997.39
2018-06-27T06:39:10.577Z,997.41
2018-06-27T06:40:10.581Z,997.39
2018-06-27T06:41:10.600Z,997.36
2018-06-27T06:42:10.592Z,997.34
2018-06-27T06:43:10.603Z,997.33
2018-06-27T06:44:10.600Z,997.22
2018-06-27T06:45:10.637Z,997.36
2018-06-27T06:46:10.623Z,997.36
2018-06-27T06:47:10.634Z,997.34
2018-06-27T06:48:10.624Z,997.25
2018-06-27T06:49:10.633Z,997.21
2018-06-27T06:50:10.636Z,997.24
2018-06-27T06:51:10.643Z,997.23
2018-06-27T06:52:10.712Z,997.31
2018-06-27T06:53:10.653Z,997.16
2018-06-27T06:54:10.665Z,997.28
2018-06-27T06:55:10.676Z,997.11
2018-06-27T06:56:10.665Z,997.21
2018-06-27T06:57:10.679Z,997.09
2018-06-27T06:58:10.674Z,997.09
2018-06-27T06:59:10.684Z,997.09
2018-06-27T07:00:10.686Z,997.06
2018-06-27T07:01:10.691Z,997.1
2018-06-27T07:02:10.696Z,997.03
2018-06-27T07:03:10.705Z,997.03
2018-06-27T07:04:10.703Z,997.09
2018-06-27T07:05:10.709Z,997.25
2018-06-27T07:06:10.713Z,997.14
2018-06-27T07:07:10.720Z,997.21
2018-06-27T07:08:10.718Z,997.08
2018-06-27T07:09:10.723Z,997.1
2018-06-27T07:10:10.730Z,997.2
2018-06-27T07:11:10.844Z,997.2
2018-06-27T07:12:10.741Z,997.17
2018-06-27T07:13:10.747Z,997.22
2018-06-27T07:14:10.768Z,997.2
2018-06-27T07:15:10.791Z,997.19
2018-06-27T07:16:10.757Z,997.19
2018-06-27T07:17:10.763Z,997.13
2018-06-27T07:18:10.782Z,997.1
2018-06-27T07:19:10.773Z,997.12
2018-06-27T07:20:10.797Z,997.09
2018-06-27T07:21:10.786Z,997.07
2018-06-27T07:22:10.808Z,997.07
2018-06-27T07:23:10.798Z,997.02
2018-06-27T07:24:10.821Z,997.07
2018-06-27T07:25:10.832Z,996.97
2018-06-27T07:26:10.819Z,996.92
2018-06-27T07:27:10.823Z,997
2018-06-27T07:28:10.839Z,996.88
2018-06-27T07:29:10.844Z,997.02
2018-06-27T07:30:10.842Z,997.03
2018-06-27T07:31:10.847Z,997.05
2018-06-27T07:32:10.854Z,997.02
2018-06-27T07:33:10.895Z,997.01
2018-06-27T07:34:10.872Z,997.02
2018-06-27T07:35:10.872Z,997.01
2018-06-27T07:36:10.881Z,997.05
2018-06-27T07:37:10.901Z,997.06
2018-06-27T07:38:10.898Z,997.08
2018-06-27T07:39:10.905Z,997.05
2018-06-27T07:40:10.906Z,997.09
2018-06-27T07:41:10.912Z,997.05
2018-06-27T07:42:10.918Z,997.05
2018-06-27T07:43:10.926Z,997
2018-06-27T07:44:10.945Z,997.03
2018-06-27T07:45:10.937Z,997.01
2018-06-27T07:46:10.943Z,997.01
2018-06-27T07:47:10.966Z,996.98
2018-06-27T07:48:10.976Z,996.98
2018-06-27T07:49:10.963Z,996.99
2018-06-27T07:50:10.974Z,997
2018-06-27T07:51:10.986Z,996.93
2018-06-27T07:52:10.984Z,996.99
2018-06-27T07:53:10.988Z,996.93
2018-06-27T07:54:11.002Z,996.93
2018-06-27T07:55:11.034Z,996.98
2018-06-27T07:56:11.013Z,996.95
2018-06-27T07:57:11.019Z,996.92
2018-06-27T07:58:11.027Z,996.89
2018-06-27T07:59:11.055Z,996.91
2018-06-27T08:00:11.048Z,996.92
2018-06-27T08:01:11.063Z,996.91
2018-06-27T08:02:11.051Z,996.85
2018-06-27T08:03:11.064Z,996.79
2018-06-27T08:04:11.064Z,996.81
2018-06-27T08:05:11.078Z,996.85
2018-06-27T08:06:11.081Z,996.76
2018-06-27T08:07:11.092Z,996.8
2018-06-27T08:08:11.090Z,996.78
2018-06-27T08:09:11.102Z,996.81
2018-06-27T08:10:11.116Z,996.78
2018-06-27T08:11:11.114Z,996.81
2018-06-27T08:12:11.148Z,996.77
2018-06-27T08:13:11.128Z,996.76
2018-06-27T08:14:11.141Z,996.73
2018-06-27T08:15:11.149Z,996.74
2018-06-27T08:16:11.150Z,996.69
2018-06-27T08:17:11.172Z,996.73
2018-06-27T08:18:11.174Z,996.74
2018-06-27T08:19:11.173Z,996.74
2018-06-27T08:20:11.196Z,996.75
2018-06-27T08:21:11.187Z,996.74
2018-06-27T08:22:11.211Z,996.69
2018-06-27T08:23:11.205Z,996.67
2018-06-27T08:24:11.208Z,996.63
2018-06-27T08:25:11.218Z,996.59
2018-06-27T08:26:11.372Z,996.64
2018-06-27T08:27:11.233Z,996.61
2018-06-27T08:28:11.238Z,996.57
2018-06-27T08:29:11.245Z,996.59
2018-06-27T08:30:11.262Z,996.56
2018-06-27T08:31:11.260Z,996.56
2018-06-27T08:32:11.277Z,996.54
2018-06-27T08:33:11.277Z,996.54
2018-06-27T08:34:11.282Z,996.51
2018-06-27T08:35:11.292Z,996.51
2018-06-27T08:36:11.300Z,996.46
2018-06-27T08:37:11.308Z,996.5
2018-06-27T08:38:11.312Z,996.44
2018-06-27T08:39:11.317Z,996.47
2018-06-27T08:40:11.326Z,996.43
2018-06-27T08:41:11.332Z,996.43
2018-06-27T08:42:11.339Z,996.43
2018-06-27T08:43:11.354Z,996.41
2018-06-27T08:44:11.354Z,996.34
2018-06-27T08:45:11.365Z,996.36
2018-06-27T08:46:11.370Z,996.37
2018-06-27T08:47:11.378Z,996.36
2018-06-27T08:48:11.386Z,996.36
2018-06-27T08:49:11.389Z,996.34
2018-06-27T08:50:11.397Z,996.36
2018-06-27T08:51:11.405Z,996.35
2018-06-27T08:52:11.412Z,996.37
2018-06-27T08:53:11.420Z,996.35
2018-06-27T08:54:11.429Z,996.34
2018-06-27T08:55:11.435Z,996.34
2018-06-27T08:56:11.444Z,996.29
2018-06-27T08:57:11.452Z,996.34
2018-06-27T08:58:11.456Z,996.31
2018-06-27T08:59:11.474Z,996.28
2018-06-27T09:00:11.475Z,996.3
2018-06-27T09:01:11.480Z,996.32
2018-06-27T09:02:11.487Z,996.3
2018-06-27T09:03:11.497Z,996.35
2018-06-27T09:04:11.499Z,996.32
2018-06-27T09:05:11.512Z,996.32
2018-06-27T09:06:11.516Z,996.25
2018-06-27T09:07:11.523Z,996.27
2018-06-27T09:08:11.535Z,996.25
2018-06-27T09:09:11.536Z,996.24
2018-06-27T09:10:11.546Z,996.24
2018-06-27T09:11:11.549Z,996.18
2018-06-27T09:12:11.567Z,996.21
2018-06-27T09:13:11.561Z,996.19
2018-06-27T09:14:11.570Z,996.17
2018-06-27T09:15:11.576Z,996.21
2018-06-27T09:16:11.587Z,996.18
2018-06-27T09:17:11.589Z,996.25
2018-06-27T09:18:14.060Z,996.21
2018-06-27T09:19:11.598Z,996.16
2018-06-27T09:20:11.605Z,996.14
2018-06-27T09:21:11.608Z,996.16
2018-06-27T09:22:11.614Z,996.2
2018-06-27T09:23:11.625Z,996.14
2018-06-27T09:24:11.625Z,996.18
2018-06-27T09:25:11.629Z,996.19
2018-06-27T09:26:11.636Z,996.18
2018-06-27T09:27:11.642Z,996.18
2018-06-27T09:28:11.648Z,996.14
2018-06-27T09:29:11.650Z,996.17
2018-06-27T09:30:11.653Z,996.11
2018-06-27T09:31:11.695Z,996.17
2018-06-27T09:32:11.669Z,996.2
2018-06-27T09:33:11.673Z,996.19
2018-06-27T09:34:11.688Z,996.16
2018-06-27T09:35:11.688Z,996.23
2018-06-27T09:36:11.690Z,996.24
2018-06-27T09:37:11.692Z,996.21
2018-06-27T09:38:11.695Z,996.21
2018-06-27T09:39:11.696Z,996.14
2018-06-27T09:40:11.703Z,996.1
2018-06-27T09:41:11.711Z,996.06
2018-06-27T09:42:11.715Z,996
2018-06-27T09:43:11.716Z,996.04
2018-06-27T09:44:11.722Z,995.96
2018-06-27T09:45:11.726Z,996
2018-06-27T09:46:11.735Z,995.99
2018-06-27T09:47:11.736Z,995.99
2018-06-27T09:48:11.742Z,995.9
2018-06-27T09:49:11.744Z,995.98
2018-06-27T09:50:11.749Z,995.98
2018-06-27T09:51:11.757Z,996.07
2018-06-27T09:52:11.759Z,995.98
2018-06-27T09:53:11.771Z,996.04
2018-06-27T09:54:11.774Z,995.99
2018-06-27T09:55:11.778Z,996.06
2018-06-27T09:56:11.777Z,996.03
2018-06-27T09:57:11.780Z,996.04
2018-06-27T09:58:11.784Z,995.95
2018-06-27T09:59:11.796Z,995.9
2018-06-27T10:00:11.795Z,995.94
2018-06-27T10:01:11.805Z,995.89
2018-06-27T10:02:11.846Z,995.84
2018-06-27T10:03:11.810Z,995.87
2018-06-27T10:04:11.810Z,995.89
2018-06-27T10:05:11.816Z,995.96
2018-06-27T10:06:11.824Z,995.99
2018-06-27T10:07:11.824Z,995.99
2018-06-27T10:08:11.829Z,995.97
2018-06-27T10:09:11.834Z,995.94
2018-06-27T10:10:11.844Z,995.93
2018-06-27T10:11:11.841Z,995.93
2018-06-27T10:12:11.853Z,995.93
2018-06-27T10:13:11.861Z,995.95
2018-06-27T10:14:11.858Z,995.91
2018-06-27T10:15:11.863Z,995.85
2018-06-27T10:16:11.873Z,995.89
2018-06-27T10:17:11.908Z,995.94
2018-06-27T10:18:11.877Z,995.87
2018-06-27T10:19:11.880Z,995.87
2018-06-27T10:20:11.888Z,995.84
2018-06-27T10:21:11.891Z,995.79
2018-06-27T10:22:11.945Z,995.73
2018-06-27T10:53:30.363Z,995.41
2018-06-27T10:54:30.346Z,995.47
2018-06-27T10:55:30.350Z,995.41
2018-06-27T10:56:30.349Z,995.47
2018-06-27T10:57:30.348Z,995.49
2018-06-27T10:58:30.355Z,995.5
2018-06-27T10:59:30.359Z,995.47
2018-06-27T11:00:30.429Z,995.46
2018-06-27T11:01:30.361Z,995.41
2018-06-27T11:02:30.368Z,995.37
2018-06-27T11:03:30.363Z,995.35
2018-06-27T11:04:30.365Z,995.33
2018-06-27T11:05:30.374Z,995.34
2018-06-27T11:06:30.375Z,995.36
2018-06-27T11:07:30.378Z,995.4
2018-06-27T11:08:30.380Z,995.39
2018-06-27T11:09:30.386Z,995.39
2018-06-27T11:10:30.427Z,995.44
2018-06-27T11:11:30.396Z,995.38
2018-06-27T11:12:30.395Z,995.44
2018-06-27T11:13:30.400Z,995.3
2018-06-27T11:14:30.406Z,995.35
2018-06-27T11:15:30.409Z,995.24
2018-06-27T11:16:30.424Z,995.16
2018-06-27T11:17:30.435Z,995.29
2018-06-27T11:18:30.429Z,995.23
2018-06-27T11:19:30.430Z,995.23
2018-06-27T11:20:30.464Z,995.28
2018-06-27T11:21:30.433Z,995.25
2018-06-27T11:22:30.436Z,995.16
2018-06-27T11:23:30.439Z,995.23
2018-06-27T11:24:30.452Z,995.29
2018-06-27T11:25:30.448Z,995.31
2018-06-27T11:26:30.456Z,995.37
2018-06-27T11:27:30.458Z,995.22
2018-06-27T11:28:30.461Z,995.16
2018-06-27T11:29:30.467Z,995.21
2018-06-27T11:30:30.468Z,995.14
2018-06-27T11:31:30.475Z,995.09
2018-06-27T11:32:30.485Z,995.26
2018-06-27T11:33:30.483Z,995.19
2018-06-27T11:34:30.492Z,995.31
2018-06-27T11:35:30.492Z,995.22
2018-06-27T11:36:30.499Z,995.2
2018-06-27T11:37:30.498Z,995.23
2018-06-27T11:38:30.537Z,995.17
2018-06-27T11:39:30.508Z,995.23
2018-06-27T11:40:30.511Z,995.3
2018-06-27T11:41:30.515Z,995.2
2018-06-27T11:42:30.519Z,995.08
2018-06-27T11:43:30.541Z,995.05
2018-06-27T11:44:30.592Z,995.13
2018-06-27T11:45:30.533Z,995.09
2018-06-27T11:46:30.538Z,995.02
2018-06-27T11:47:30.541Z,995.04
2018-06-27T11:48:30.543Z,995.14
2018-06-27T11:49:30.552Z,995.01
2018-06-27T11:50:30.554Z,995.06
2018-06-27T11:51:30.559Z,995.07
2018-06-27T11:52:30.561Z,995.17
2018-06-27T11:53:30.566Z,995.14
2018-06-27T11:54:30.570Z,995.16
2018-06-27T11:55:30.630Z,995.25
2018-06-27T11:56:30.577Z,995.16
2018-06-27T11:57:30.585Z,995.15
2018-06-27T11:58:30.588Z,995.16
2018-06-27T11:59:30.591Z,995.2
2018-06-27T12:00:30.597Z,995.13
2018-06-27T12:01:30.599Z,995.24
2018-06-27T12:02:30.606Z,995.14
2018-06-27T12:03:30.606Z,995.03
2018-06-27T12:04:30.611Z,995.17
2018-06-27T12:05:30.616Z,995.07
2018-06-27T12:06:30.620Z,995.06
2018-06-27T12:07:30.623Z,995
2018-06-27T12:08:30.639Z,994.96
2018-06-27T12:09:30.631Z,994.99
2018-06-27T12:10:30.633Z,995.04
2018-06-27T12:11:30.641Z,995.04
2018-06-27T12:12:30.646Z,994.96
2018-06-27T12:13:30.649Z,994.94
2018-06-27T12:14:30.651Z,994.94
2018-06-27T12:15:30.657Z,995.09
2018-06-27T12:16:30.657Z,995.12
2018-06-27T12:17:30.661Z,995.02
2018-06-27T12:18:30.671Z,994.96
2018-06-27T12:19:30.674Z,994.88
2018-06-27T12:20:30.775Z,994.81
2018-06-27T12:21:30.678Z,994.76
2018-06-27T12:22:30.687Z,994.83
2018-06-27T12:23:30.686Z,994.93
2018-06-27T12:24:30.689Z,994.89
2018-06-27T12:25:30.696Z,994.94
2018-06-27T12:26:30.722Z,994.92
2018-06-27T12:27:30.705Z,994.84
2018-06-27T12:28:30.708Z,994.82
2018-06-27T12:29:30.712Z,994.81
2018-06-27T12:30:30.720Z,994.89
2018-06-27T12:31:30.723Z,994.94
2018-06-27T12:32:30.728Z,994.87
2018-06-27T12:33:31.530Z,994.92
2018-06-27T12:34:30.738Z,994.87
2018-06-27T12:35:30.742Z,994.93
2018-06-27T12:36:30.740Z,994.85
2018-06-27T12:37:30.751Z,994.88
2018-06-27T12:38:30.767Z,994.83
2018-06-27T12:39:30.756Z,994.82
2018-06-27T12:40:30.759Z,994.74
2018-06-27T12:41:30.769Z,994.73
2018-06-27T12:42:30.767Z,994.72
2018-06-27T12:43:30.769Z,994.75
2018-06-27T12:44:30.775Z,994.78
2018-06-27T12:45:30.777Z,994.9
2018-06-27T12:46:30.782Z,994.91
2018-06-27T12:47:30.785Z,995.03
2018-06-27T12:48:30.790Z,995.05
2018-06-27T12:49:30.798Z,994.9
2018-06-27T12:50:30.810Z,994.86
2018-06-27T12:51:30.802Z,994.82
2018-06-27T12:52:30.806Z,994.64
2018-06-27T12:53:30.813Z,994.61
2018-06-27T12:54:30.814Z,994.59
2018-06-27T12:55:30.828Z,994.59
2018-06-27T12:56:30.834Z,994.6
2018-06-27T12:57:30.830Z,994.6
2018-06-27T12:58:30.832Z,994.6
2018-06-27T12:59:30.835Z,994.58
2018-06-27T13:00:30.951Z,994.54
2018-06-27T13:01:30.843Z,994.6